createdAt,value
2022-08-01T00:02:46.927Z,1.40
2022-08-01T00:05:13.939Z,1.25
2022-08-01T00:07:40.716Z,1.00
2022-08-01T00:10:10.706Z,1.33
2022-08-01T00:12:43.083Z,1.48
2022-08-01T00:15:13.922Z,1.50
2022-08-01T00:17:44.353Z,1.30
2022-08-01T00:20:13.148Z,1.20
2022-08-01T00:22:42.249Z,1.30
2022-08-01T00:25:11.538Z,1.25
2022-08-01T00:27:40.631Z,1.25
2022-08-01T00:30:13.278Z,1.15
2022-08-01T00:32:42.777Z,1.20
2022-08-01T00:35:09.814Z,1.20
2022-08-01T00:37:36.551Z,1.45
2022-08-01T00:40:03.742Z,1.50
2022-08-01T00:42:30.922Z,1.38
2022-08-01T00:44:57.689Z,1.48
2022-08-01T00:47:24.459Z,1.17
2022-08-01T00:49:51.501Z,1.30
2022-08-01T00:52:18.368Z,1.10
2022-08-01T00:54:45.689Z,1.25
2022-08-01T00:57:12.981Z,1.27
2022-08-01T00:59:44.632Z,1.45
2022-08-01T01:04:43.361Z,1.23
2022-08-01T01:07:33.328Z,1.20
2022-08-01T01:10:05.692Z,1.40
2022-08-01T01:12:38.923Z,1.27
2022-08-01T01:15:11.842Z,1.33
2022-08-01T01:17:51.114Z,1.40
2022-08-01T01:20:20.246Z,1.40
2022-08-01T01:23:20.346Z,1.60
2022-08-01T01:26:07.370Z,1.45
2022-08-01T01:29:03.509Z,1.50
2022-08-01T01:31:37.023Z,1.40
2022-08-01T01:34:05.502Z,1.50
2022-08-01T01:36:35.625Z,1.95
2022-08-01T01:39:04.976Z,1.13
2022-08-01T01:41:32.724Z,1.23
2022-08-01T01:44:01.655Z,1.33
2022-08-01T01:46:31.089Z,2.08
2022-08-01T01:51:29.409Z,1.23
2022-08-01T01:54:00.481Z,1.48
2022-08-01T01:56:29.782Z,1.65
2022-08-01T01:59:04.251Z,1.83
2022-08-01T02:02:08.776Z,1.40
2022-08-01T02:04:21.610Z,1.60
2022-08-01T02:06:50.643Z,1.60
2022-08-01T02:09:22.421Z,1.45
2022-08-01T02:12:08.159Z,1.50
2022-08-01T02:14:36.688Z,1.50
2022-08-01T02:17:06.232Z,1.40
2022-08-01T02:22:36.729Z,1.40
2022-08-01T02:25:16.108Z,1.35
2022-08-01T02:27:49.075Z,1.45
2022-08-01T02:30:18.896Z,1.52
2022-08-01T02:32:52.101Z,1.33
2022-08-01T02:35:26.361Z,1.63
2022-08-01T02:37:54.800Z,1.60
2022-08-01T02:40:21.808Z,1.70
2022-08-01T02:42:53.593Z,1.60
2022-08-01T02:45:23.996Z,1.80
2022-08-01T02:47:52.728Z,1.73
2022-08-01T02:50:22.966Z,2.37
2022-08-01T02:52:53.948Z,1.85
2022-08-01T02:55:21.225Z,1.70
2022-08-01T02:57:52.220Z,1.80
2022-08-01T03:00:20.163Z,1.60
2022-08-01T03:02:49.513Z,1.70
2022-08-01T03:05:20.275Z,1.77
2022-08-01T03:07:48.470Z,1.63
2022-08-01T03:10:17.108Z,1.58
2022-08-01T03:12:49.984Z,1.80
2022-08-01T03:15:18.459Z,1.88
2022-08-01T03:17:47.752Z,2.17
2022-08-01T03:20:16.378Z,1.50
2022-08-01T03:22:45.904Z,2.00
2022-08-01T03:27:48.792Z,2.00
2022-08-01T03:30:16.487Z,1.95
2022-08-01T03:32:43.448Z,1.73
2022-08-01T03:35:10.453Z,1.52
2022-08-01T03:38:13.473Z,1.70
2022-08-01T03:40:40.806Z,2.28
2022-08-01T03:43:23.545Z,1.90
2022-08-01T03:45:52.673Z,1.85
2022-08-01T03:48:23.486Z,1.90
2022-08-01T03:50:53.337Z,1.90
2022-08-01T03:53:25.686Z,1.88
2022-08-01T03:55:55.135Z,2.00
2022-08-01T04:00:51.340Z,1.38
2022-08-01T04:03:18.569Z,1.60
2022-08-01T04:05:45.762Z,2.13
2022-08-01T04:08:12.530Z,1.88
2022-08-01T04:10:39.630Z,2.10
2022-08-01T04:13:06.592Z,1.95
2022-08-01T04:15:33.387Z,2.17
2022-08-01T04:18:00.115Z,1.75
2022-08-01T04:20:29.271Z,2.05
2022-08-01T04:22:56.060Z,2.00
2022-08-01T04:25:25.246Z,2.28
2022-08-01T04:27:54.114Z,2.05
2022-08-01T04:30:32.387Z,2.63
2022-08-01T04:33:01.103Z,2.45
2022-08-01T04:36:01.909Z,2.77
2022-08-01T04:38:24.146Z,2.30
2022-08-01T04:40:53.098Z,2.30
2022-08-01T04:43:20.062Z,2.83
2022-08-01T04:45:48.539Z,2.75
2022-08-01T04:48:18.696Z,2.10
2022-08-01T04:50:45.619Z,2.63
2022-08-01T04:53:19.610Z,2.72
2022-08-01T04:55:47.235Z,3.05
2022-08-01T04:58:18.266Z,2.40
2022-08-01T05:00:46.786Z,2.50
2022-08-01T05:03:13.549Z,2.70
2022-08-01T05:05:42.659Z,2.42
2022-08-01T05:08:09.339Z,3.05
2022-08-01T05:10:40.898Z,2.80
2022-08-01T05:13:07.659Z,3.00
2022-08-01T05:15:37.560Z,3.10
2022-08-01T05:18:04.695Z,3.00
2022-08-01T05:20:31.402Z,2.75
2022-08-01T05:22:58.215Z,2.60
2022-08-01T05:25:57.075Z,2.83
2022-08-01T05:28:11.846Z,3.10
2022-08-01T05:30:46.032Z,3.38
2022-08-01T05:33:15.385Z,3.08
2022-08-01T05:35:47.555Z,2.83
2022-08-01T05:38:15.267Z,3.30
2022-08-01T05:40:42.180Z,3.30
2022-08-01T05:43:08.907Z,3.58
2022-08-01T05:45:35.663Z,3.58
2022-08-01T05:48:05.100Z,3.67
2022-08-01T05:53:03.205Z,3.40
2022-08-01T05:55:30.104Z,3.13
2022-08-01T05:57:56.813Z,2.95
2022-08-01T06:00:23.605Z,3.53
2022-08-01T06:02:50.435Z,4.28
2022-08-01T06:05:17.163Z,3.55
2022-08-01T06:07:46.405Z,4.25
2022-08-01T06:10:13.268Z,4.10
2022-08-01T06:12:39.984Z,3.70
2022-08-01T06:15:07.679Z,3.42
2022-08-01T06:17:34.655Z,4.10
2022-08-01T06:20:01.462Z,4.35
2022-08-01T06:22:28.179Z,4.07
2022-08-01T06:24:57.119Z,4.45
2022-08-01T06:27:26.952Z,3.85
2022-08-01T06:29:59.328Z,3.85
2022-08-01T06:32:28.251Z,3.53
2022-08-01T06:34:56.011Z,4.25
2022-08-01T06:37:31.958Z,4.13
2022-08-01T06:40:16.654Z,4.97
2022-08-01T06:42:47.885Z,4.57
2022-08-01T06:45:15.760Z,3.90
2022-08-01T06:47:50.634Z,4.28
2022-08-01T06:50:18.332Z,4.78
2022-08-01T06:52:45.532Z,5.07
2022-08-01T06:55:12.492Z,5.32
2022-08-01T06:57:55.246Z,5.55
2022-08-01T07:00:23.571Z,4.93
2022-08-01T07:02:59.432Z,4.90
2022-08-01T07:05:26.523Z,6.15
2022-08-01T07:07:53.427Z,4.78
2022-08-01T07:10:20.328Z,4.63
2022-08-01T07:12:49.223Z,4.20
2022-08-01T07:15:16.677Z,4.57
2022-08-01T07:17:44.132Z,4.63
2022-08-01T07:20:16.403Z,5.90
2022-08-01T07:22:48.166Z,5.03
2022-08-01T07:25:17.657Z,4.47
2022-08-01T07:27:45.662Z,4.22
2022-08-01T07:30:12.827Z,5.13
2022-08-01T07:32:39.755Z,5.45
2022-08-01T07:35:09.942Z,5.40
2022-08-01T07:37:45.541Z,4.93
2022-08-01T07:40:15.728Z,5.80
2022-08-01T07:42:47.731Z,5.32
2022-08-01T07:45:15.062Z,4.80
2022-08-01T07:47:41.937Z,5.57
2022-08-01T07:50:11.269Z,5.50
2022-08-01T07:52:38.485Z,4.97
2022-08-01T07:55:06.038Z,5.03
2022-08-01T07:57:33.147Z,5.60
2022-08-01T08:00:00.761Z,5.25
2022-08-01T08:02:33.935Z,5.18
2022-08-01T08:05:04.784Z,5.75
2022-08-01T08:07:32.853Z,5.15
2022-08-01T08:10:06.198Z,4.88
2022-08-01T08:12:34.831Z,4.97
2022-08-01T08:15:02.093Z,4.60
2022-08-01T08:17:28.882Z,4.90
2022-08-01T08:20:04.290Z,5.50
2022-08-01T08:22:35.627Z,5.18
2022-08-01T08:25:04.532Z,4.45
2022-08-01T08:27:37.821Z,4.40
2022-08-01T08:30:08.452Z,4.80
2022-08-01T08:32:36.697Z,4.65
2022-08-01T08:35:03.974Z,4.70
2022-08-01T08:37:31.528Z,5.20
2022-08-01T08:40:06.862Z,3.42
2022-08-01T08:42:33.776Z,3.88
2022-08-01T08:45:00.537Z,3.50
2022-08-01T08:47:33.034Z,3.60
2022-08-01T08:50:00.990Z,3.80
2022-08-01T08:52:28.161Z,3.75
2022-08-01T08:54:56.607Z,3.35
2022-08-01T08:57:25.586Z,3.30
2022-08-01T08:59:53.570Z,3.33
2022-08-01T09:02:21.821Z,3.90
2022-08-01T09:04:53.427Z,3.28
2022-08-01T09:07:20.294Z,3.10
2022-08-01T09:09:49.270Z,3.63
2022-08-01T09:12:20.430Z,3.38
2022-08-01T09:14:51.199Z,3.28
2022-08-01T09:17:18.141Z,3.15
2022-08-01T09:19:50.244Z,3.55
2022-08-01T09:22:19.590Z,3.28
2022-08-01T09:25:17.444Z,3.00
2022-08-01T09:27:46.251Z,3.05
2022-08-01T09:30:17.080Z,3.55
2022-08-01T09:33:06.265Z,3.30
2022-08-01T09:35:45.363Z,2.80
2022-08-01T09:38:27.524Z,3.22
2022-08-01T09:40:58.335Z,3.50
2022-08-01T09:43:33.050Z,4.32
2022-08-01T09:46:05.126Z,3.78
2022-08-01T09:48:35.099Z,3.22
2022-08-01T09:51:07.028Z,2.85
2022-08-01T09:53:51.813Z,3.15
2022-08-01T09:56:25.184Z,3.10
2022-08-01T09:59:01.672Z,3.13
2022-08-01T10:01:47.533Z,3.88
2022-08-01T10:04:18.474Z,4.60
2022-08-01T10:06:53.738Z,3.45
2022-08-01T10:09:39.961Z,3.47
2022-08-01T10:12:09.215Z,3.60
2022-08-01T10:14:46.040Z,3.05
2022-08-01T10:17:18.444Z,3.30
2022-08-01T10:19:51.540Z,2.92
2022-08-01T10:22:22.574Z,2.90
2022-08-01T10:24:53.941Z,3.17
2022-08-01T10:27:33.509Z,3.10
2022-08-01T10:30:20.167Z,2.50
2022-08-01T10:32:55.703Z,2.70
2022-08-01T10:35:45.568Z,2.92
2022-08-01T10:38:13.889Z,2.90
2022-08-01T10:40:42.390Z,2.88
2022-08-01T10:43:11.383Z,3.03
2022-08-01T10:45:38.187Z,2.90
2022-08-01T10:48:29.697Z,2.88
2022-08-01T10:50:59.512Z,2.33
2022-08-01T10:53:31.228Z,2.55
2022-08-01T10:56:13.017Z,2.50
2022-08-01T10:58:44.738Z,2.80
2022-08-01T11:01:16.131Z,3.25
2022-08-01T11:03:57.520Z,3.05
2022-08-01T11:06:33.749Z,3.53
2022-08-01T11:09:36.800Z,3.58
2022-08-01T11:12:13.258Z,2.90
2022-08-01T11:15:02.439Z,3.10
2022-08-01T11:17:38.010Z,2.92
2022-08-01T11:20:13.665Z,2.88
2022-08-01T11:23:04.760Z,2.97
2022-08-01T11:26:05.987Z,3.20
2022-08-01T11:28:32.442Z,2.95
2022-08-01T11:31:11.317Z,2.97
2022-08-01T11:33:45.407Z,2.78
2022-08-01T11:36:13.167Z,3.10
2022-08-01T11:38:48.371Z,3.30
2022-08-01T11:41:16.334Z,2.60
2022-08-01T11:44:09.846Z,3.00
2022-08-01T11:47:13.540Z,2.70
2022-08-01T11:49:49.948Z,2.88
2022-08-01T11:52:29.536Z,3.05
2022-08-01T11:54:59.254Z,2.92
2022-08-01T11:57:34.280Z,2.85
2022-08-01T12:00:16.894Z,3.10
2022-08-01T12:02:48.365Z,3.28
2022-08-01T12:05:24.889Z,2.50
2022-08-01T12:07:52.743Z,2.70
2022-08-01T12:10:24.538Z,2.70
2022-08-01T12:12:54.465Z,2.92
2022-08-01T12:15:24.955Z,3.63
2022-08-01T12:18:00.042Z,3.17
2022-08-01T12:20:34.381Z,2.90
2022-08-01T12:23:06.750Z,3.65
2022-08-01T12:25:36.538Z,3.53
2022-08-01T12:28:08.639Z,3.17
2022-08-01T12:30:38.130Z,3.10
2022-08-01T12:33:09.669Z,2.83
2022-08-01T12:35:40.711Z,3.03
2022-08-01T12:38:23.202Z,2.80
2022-08-01T12:40:53.258Z,2.45
2022-08-01T12:43:28.695Z,2.75
2022-08-01T12:45:58.479Z,2.67
2022-08-01T12:53:27.024Z,2.70
2022-08-01T12:56:06.901Z,3.67
2022-08-01T12:58:34.848Z,3.13
2022-08-01T13:01:13.197Z,3.50
2022-08-01T13:03:41.094Z,3.40
2022-08-01T13:06:13.468Z,2.78
2022-08-01T13:08:42.756Z,2.65
2022-08-01T13:11:15.174Z,2.90
2022-08-01T13:13:52.824Z,2.67
2022-08-01T13:16:38.517Z,2.33
2022-08-01T13:19:12.844Z,2.38
2022-08-01T13:21:53.094Z,2.65
2022-08-01T13:24:31.019Z,2.28
2022-08-01T13:27:04.053Z,2.70
2022-08-01T13:29:32.996Z,2.42
2022-08-01T13:32:01.405Z,2.30
2022-08-01T13:34:35.361Z,2.20
2022-08-01T13:37:02.873Z,2.90
2022-08-01T13:39:48.439Z,2.78
2022-08-01T13:42:19.353Z,2.30
2022-08-01T13:44:46.664Z,2.38
2022-08-01T13:47:16.268Z,2.80
2022-08-01T13:49:44.214Z,2.38
2022-08-01T13:52:11.098Z,2.17
2022-08-01T13:54:37.917Z,2.45
2022-08-01T13:57:04.753Z,2.58
2022-08-01T13:59:33.897Z,2.15
2022-08-01T14:02:05.657Z,2.60
2022-08-01T14:04:35.143Z,2.80
2022-08-01T14:07:05.497Z,2.63
2022-08-01T14:09:45.162Z,2.40
2022-08-01T14:12:27.782Z,2.67
2022-08-01T14:14:54.531Z,2.40
2022-08-01T14:17:21.320Z,2.63
2022-08-01T14:19:51.360Z,2.63
2022-08-01T14:22:18.068Z,2.85
2022-08-01T14:24:44.779Z,3.33
2022-08-01T14:27:11.527Z,3.15
2022-08-01T14:30:02.328Z,2.78
2022-08-01T14:32:28.865Z,2.95
2022-08-01T14:34:58.272Z,2.90
2022-08-01T14:37:29.281Z,2.40
2022-08-01T14:39:59.416Z,2.30
2022-08-01T14:42:26.859Z,2.60
2022-08-01T14:44:56.243Z,4.65
2022-08-01T14:47:23.334Z,2.70
2022-08-01T14:49:51.488Z,2.70
2022-08-01T14:52:18.505Z,2.30
2022-08-01T14:54:47.731Z,2.72
2022-08-01T14:59:41.230Z,2.47
2022-08-01T15:02:11.525Z,2.10
2022-08-01T15:04:38.226Z,1.80
2022-08-01T15:07:04.954Z,2.22
2022-08-01T15:09:31.735Z,2.20
2022-08-01T15:11:59.722Z,2.03
2022-08-01T15:14:44.966Z,1.83
2022-08-01T15:17:14.537Z,2.03
2022-08-01T15:19:42.449Z,1.80
2022-08-01T15:22:09.648Z,1.90
2022-08-01T15:24:38.978Z,2.35
2022-08-01T15:27:08.329Z,2.15
2022-08-01T15:29:35.292Z,2.30
2022-08-01T15:32:05.265Z,2.10
2022-08-01T15:34:35.740Z,2.00
2022-08-01T15:37:04.118Z,2.10
2022-08-01T15:39:31.541Z,1.90
2022-08-01T15:42:07.805Z,1.92
2022-08-01T15:44:34.771Z,2.00
2022-08-01T15:47:02.422Z,2.10
2022-08-01T15:49:32.487Z,2.00
2022-08-01T15:52:01.483Z,2.08
2022-08-01T15:54:28.228Z,1.75
2022-08-01T15:56:54.986Z,2.30
2022-08-01T15:59:23.028Z,1.85
2022-08-01T16:01:55.249Z,2.00
2022-08-01T16:04:22.135Z,2.33
2022-08-01T16:06:56.760Z,1.90
2022-08-01T16:09:24.303Z,3.05
2022-08-01T16:11:53.667Z,1.67
2022-08-01T16:14:22.973Z,1.60
2022-08-01T16:19:20.065Z,1.70
2022-08-01T16:21:49.209Z,1.70
2022-08-01T16:24:18.067Z,1.67
2022-08-01T16:26:44.824Z,1.65
2022-08-01T16:29:11.586Z,1.80
2022-08-01T16:32:03.308Z,1.65
2022-08-01T16:34:25.122Z,1.70
2022-08-01T16:36:53.273Z,1.67
2022-08-01T16:39:23.375Z,1.80
2022-08-01T16:41:55.033Z,1.90
2022-08-01T16:44:33.280Z,1.92
2022-08-01T16:47:05.443Z,1.90
2022-08-01T16:49:32.630Z,1.67
2022-08-01T16:51:59.727Z,1.58
2022-08-01T16:54:26.733Z,1.77
2022-08-01T16:56:57.866Z,1.58
2022-08-01T16:59:34.379Z,1.77
2022-08-01T17:02:08.847Z,1.90
2022-08-01T17:04:35.646Z,1.80
2022-08-01T17:07:02.542Z,1.70
2022-08-01T17:09:29.712Z,1.85
2022-08-01T17:11:56.516Z,1.33
2022-08-01T17:14:25.693Z,2.10
2022-08-01T17:16:52.422Z,1.83
2022-08-01T17:19:19.187Z,1.80
2022-08-01T17:21:53.467Z,2.35
2022-08-01T17:24:22.477Z,1.92
2022-08-01T17:26:49.257Z,1.75
2022-08-01T17:29:16.977Z,2.15
2022-08-01T17:31:43.999Z,1.92
2022-08-01T17:34:10.854Z,1.60
2022-08-01T17:36:39.978Z,1.70
2022-08-01T17:39:08.700Z,1.90
2022-08-01T17:41:35.784Z,2.00
2022-08-01T17:44:04.627Z,1.85
2022-08-01T17:46:36.090Z,1.48
2022-08-01T17:49:04.237Z,1.85
2022-08-01T17:51:33.502Z,1.48
2022-08-01T17:54:00.269Z,1.60
2022-08-01T17:56:31.765Z,1.80
2022-08-01T17:59:00.317Z,1.92
2022-08-01T18:01:27.561Z,1.83
2022-08-01T18:03:55.130Z,1.90
2022-08-01T18:06:23.446Z,2.03
2022-08-01T18:08:53.109Z,1.90
2022-08-01T18:11:22.710Z,2.20
2022-08-01T18:13:51.635Z,2.07
2022-08-01T18:16:18.899Z,2.30
2022-08-01T18:18:48.502Z,1.92
2022-08-01T18:21:20.014Z,2.00
2022-08-01T18:23:52.297Z,2.15
2022-08-01T18:26:20.770Z,2.38
2022-08-01T18:28:49.827Z,2.00
2022-08-01T18:31:17.629Z,1.85
2022-08-01T18:33:45.154Z,2.20
2022-08-01T18:36:27.212Z,1.70
2022-08-01T18:39:00.869Z,2.05
2022-08-01T18:41:28.761Z,2.45
2022-08-01T18:44:04.245Z,2.55
2022-08-01T18:46:39.287Z,2.28
2022-08-01T18:49:11.126Z,2.15
2022-08-01T18:51:44.708Z,2.03
2022-08-01T18:54:12.666Z,2.13
2022-08-01T18:56:39.688Z,2.10
2022-08-01T18:59:06.717Z,2.20
2022-08-01T19:01:33.670Z,2.45
2022-08-01T19:04:00.711Z,2.35
2022-08-01T19:06:29.872Z,2.08
2022-08-01T19:09:02.851Z,2.20
2022-08-01T19:11:33.255Z,2.38
2022-08-01T19:14:03.161Z,1.98
2022-08-01T19:16:34.512Z,2.08
2022-08-01T19:19:07.212Z,2.13
2022-08-01T19:21:34.162Z,2.15
2022-08-01T19:24:23.152Z,2.22
2022-08-01T19:26:52.976Z,2.10
2022-08-01T19:29:35.263Z,2.10
2022-08-01T19:32:07.016Z,2.10
2022-08-01T19:34:41.879Z,2.47
2022-08-01T19:37:09.529Z,1.90
2022-08-01T19:39:36.545Z,1.92
2022-08-01T19:42:04.198Z,2.17
2022-08-01T19:44:31.733Z,2.30
2022-08-01T19:47:01.068Z,2.10
2022-08-01T19:49:28.303Z,2.25
2022-08-01T19:52:02.809Z,1.80
2022-08-01T19:54:37.605Z,2.38
2022-08-01T19:57:06.515Z,2.25
2022-08-01T19:59:37.737Z,1.77
2022-08-01T20:02:05.719Z,2.00
2022-08-01T20:04:33.840Z,2.20
2022-08-01T20:07:02.991Z,2.45
2022-08-01T20:09:34.994Z,2.00
2022-08-01T20:12:01.877Z,2.28
2022-08-01T20:14:29.328Z,1.95
2022-08-01T20:16:56.452Z,1.90
2022-08-01T20:19:24.567Z,1.70
2022-08-01T20:22:03.013Z,1.60
2022-08-01T20:24:41.277Z,1.90
2022-08-01T20:27:10.038Z,1.70
2022-08-01T20:29:37.378Z,2.33
2022-08-01T20:32:04.876Z,1.50
2022-08-01T20:34:34.634Z,1.85
2022-08-01T20:37:09.254Z,1.50
2022-08-01T20:39:46.351Z,1.63
2022-08-01T20:42:17.274Z,1.30
2022-08-01T20:44:45.822Z,1.90
2022-08-01T20:47:13.649Z,1.70
2022-08-01T20:49:43.245Z,1.50
2022-08-01T20:52:11.613Z,1.50
2022-08-01T20:57:09.841Z,1.70
2022-08-01T20:59:40.049Z,1.63
2022-08-01T21:02:26.935Z,1.60
2022-08-01T21:05:00.597Z,1.50
2022-08-01T21:07:28.683Z,1.50
2022-08-01T21:10:16.099Z,1.60
2022-08-01T21:12:58.334Z,1.60
2022-08-01T21:15:33.815Z,1.67
2022-08-01T21:18:09.389Z,1.50
2022-08-01T21:20:42.433Z,1.60
2022-08-01T21:23:25.995Z,1.52
2022-08-01T21:25:53.631Z,1.50
2022-08-01T21:28:20.810Z,1.58
2022-08-01T21:30:53.800Z,1.80
2022-08-01T21:33:24.644Z,1.60
2022-08-01T21:35:55.654Z,1.80
2022-08-01T21:38:23.960Z,1.80
2022-08-01T21:40:53.025Z,1.85
2022-08-01T21:43:23.606Z,2.00
2022-08-01T21:45:57.684Z,1.70
2022-08-01T21:48:27.116Z,2.40
2022-08-01T21:50:59.585Z,1.80
2022-08-01T21:56:31.739Z,2.00
2022-08-01T21:59:13.227Z,1.70
2022-08-01T22:01:59.839Z,1.80
2022-08-01T22:04:39.031Z,2.05
2022-08-01T22:07:11.288Z,1.88
2022-08-01T22:09:45.366Z,2.05
2022-08-01T22:12:17.910Z,2.20
2022-08-01T22:14:51.004Z,1.80
2022-08-01T22:17:22.606Z,1.70
2022-08-01T22:19:53.947Z,2.08
2022-08-01T22:22:45.293Z,1.83
2022-08-01T22:25:12.430Z,1.80
2022-08-01T22:28:03.011Z,1.80
2022-08-01T22:30:31.171Z,2.13
2022-08-01T22:33:15.308Z,2.28
2022-08-01T22:35:45.467Z,2.20
2022-08-01T22:38:14.647Z,2.38
2022-08-01T22:40:51.001Z,2.70
2022-08-01T22:43:52.114Z,2.13
2022-08-01T22:46:39.231Z,2.20
2022-08-01T22:49:36.374Z,2.20
2022-08-01T22:52:13.377Z,2.50
2022-08-01T22:54:43.915Z,2.13
2022-08-01T22:57:29.432Z,2.17
2022-08-01T23:00:00.491Z,2.00
2022-08-01T23:02:29.875Z,2.28
2022-08-01T23:05:07.705Z,2.42
2022-08-01T23:07:38.157Z,2.55
2022-08-01T23:10:06.192Z,2.30
2022-08-01T23:12:33.772Z,2.25
2022-08-01T23:15:01.521Z,2.35
2022-08-01T23:17:30.025Z,2.63
2022-08-01T23:19:58.294Z,2.33
2022-08-01T23:22:28.080Z,2.75
2022-08-01T23:25:04.088Z,2.40
2022-08-01T23:27:55.878Z,2.50
2022-08-01T23:30:20.291Z,2.42
2022-08-01T23:32:47.490Z,2.40
2022-08-01T23:35:14.607Z,2.05
2022-08-01T23:37:41.775Z,2.15
2022-08-01T23:40:09.295Z,2.47
2022-08-01T23:42:38.744Z,2.60
2022-08-01T23:45:07.245Z,2.00
2022-08-01T23:47:34.383Z,2.00
2022-08-01T23:50:01.142Z,2.28
2022-08-01T23:52:32.065Z,2.10
2022-08-01T23:55:10.154Z,2.28
2022-08-01T23:57:41.884Z,2.10
